createdAt,value
2018-01-27T00:01:13.557Z,101313.59
2018-01-27T00:03:46.132Z,101310.66
2018-01-27T00:06:13.642Z,101305.42
2018-01-27T00:08:41.129Z,101318.52
2018-01-27T00:11:08.591Z,101311.84
2018-01-27T00:13:36.140Z,101318.74
2018-01-27T00:16:03.625Z,101315.91
2018-01-27T00:18:31.137Z,101321.42
2018-01-27T00:20:58.635Z,101316.71
2018-01-27T00:23:26.087Z,101326.09
2018-01-27T00:25:53.560Z,101336.76
2018-01-27T00:28:21.066Z,101336.09
2018-01-27T00:30:49.866Z,101335.74
2018-01-27T00:33:19.658Z,101336.11
2018-01-27T00:35:47.144Z,101331.84
2018-01-27T00:38:15.221Z,101337.89
2018-01-27T00:40:44.467Z,101346.84
2018-01-27T00:43:12.915Z,101339.55
2018-01-27T00:45:41.410Z,101349.19
2018-01-27T00:48:08.910Z,101349.77
2018-01-27T00:50:36.398Z,101351.28
2018-01-27T00:53:04.809Z,101348.10
2018-01-27T00:55:32.315Z,101354.55
2018-01-27T00:57:59.805Z,101358.67
2018-01-27T01:00:27.315Z,101359.66
2018-01-27T01:02:54.779Z,101361.14
2018-01-27T01:05:23.103Z,101361.84
2018-01-27T01:07:50.589Z,101367.84
2018-01-27T01:10:18.067Z,101370.70
2018-01-27T01:12:45.542Z,101368.47
2018-01-27T01:15:13.312Z,101368.69
2018-01-27T01:17:41.408Z,101372.52
2018-01-27T01:20:08.930Z,101367.52
2018-01-27T01:22:36.405Z,101369.44
2018-01-27T01:25:03.943Z,101376.91
2018-01-27T01:27:31.470Z,101370.59
2018-01-27T01:29:59.014Z,101375.59
2018-01-27T01:32:26.474Z,101377.50
2018-01-27T01:34:53.964Z,101374.25
2018-01-27T01:37:21.463Z,101371.61
2018-01-27T01:39:48.922Z,101377.14
2018-01-27T01:42:23.327Z,101380.02
2018-01-27T01:44:51.552Z,101378.64
2018-01-27T01:47:19.140Z,101371.63
2018-01-27T01:49:51.568Z,101374.67
2018-01-27T01:52:20.552Z,101374.50
2018-01-27T01:54:48.026Z,101377.15
2018-01-27T01:57:16.508Z,101378.23
2018-01-27T01:59:44.033Z,101378.98
2018-01-27T02:02:11.516Z,101376.55
2018-01-27T02:04:39.021Z,101381.39
2018-01-27T02:07:06.646Z,101382.02
2018-01-27T02:09:34.111Z,101384.71
2018-01-27T02:12:01.546Z,101380.76
2018-01-27T02:14:29.004Z,101384.61
2018-01-27T02:16:56.539Z,101387.08
2018-01-27T02:19:24.054Z,101388.69
2018-01-27T02:21:52.013Z,101391.16
2018-01-27T02:24:19.526Z,101394.89
2018-01-27T02:26:47.006Z,101394.22
2018-01-27T02:29:14.467Z,101395.55
2018-01-27T02:31:41.957Z,101402.95
2018-01-27T02:34:14.442Z,101403.30
2018-01-27T02:36:41.927Z,101404.33
2018-01-27T02:39:09.383Z,101403.77
2018-01-27T02:41:36.901Z,101406.30
2018-01-27T02:44:04.406Z,101414.11
2018-01-27T02:46:31.861Z,101420.31
2018-01-27T02:48:59.374Z,101422.89
2018-01-27T02:51:26.912Z,101427.45
2018-01-27T02:53:54.417Z,101430.33
2018-01-27T02:56:21.891Z,101425.66
2018-01-27T02:58:49.353Z,101427.69
2018-01-27T03:01:16.905Z,101426.19
2018-01-27T03:03:44.486Z,101428.95
2018-01-27T03:06:12.003Z,101429.13
2018-01-27T03:08:39.880Z,101420.96
2018-01-27T03:11:07.353Z,101427.34
2018-01-27T03:13:34.805Z,101426.94
2018-01-27T03:16:02.752Z,101433.44
2018-01-27T03:18:30.210Z,101444.72
2018-01-27T03:20:57.667Z,101450.02
2018-01-27T03:23:28.018Z,101446.77
2018-01-27T03:25:55.645Z,101443.40
2018-01-27T03:28:23.477Z,101446.77
2018-01-27T03:30:51.152Z,101461.67
2018-01-27T03:33:18.641Z,101464.56
2018-01-27T03:35:46.186Z,101445.58
2018-01-27T03:38:13.669Z,101452.80
2018-01-27T03:40:41.175Z,101457.36
2018-01-27T03:43:22.964Z,101462.83
2018-01-27T03:45:50.811Z,101465.41
2018-01-27T03:48:20.029Z,101470.95
2018-01-27T03:50:47.502Z,101476.41
2018-01-27T03:53:14.990Z,101478.77
2018-01-27T03:55:42.441Z,101473.47
2018-01-27T03:58:10.948Z,101481.52
2018-01-27T04:00:38.455Z,101485.24
2018-01-27T04:03:11.171Z,101496.05
2018-01-27T04:05:38.724Z,101507.39
2018-01-27T04:08:06.202Z,101504.34
2018-01-27T04:10:33.665Z,101508.31
2018-01-27T04:13:01.161Z,101516.77
2018-01-27T04:15:28.647Z,101518.88
2018-01-27T04:17:56.119Z,101519.91
2018-01-27T04:20:23.570Z,101524.92
2018-01-27T04:22:51.053Z,101526.02
2018-01-27T04:25:18.547Z,101530.54
2018-01-27T04:27:46.044Z,101536.81
2018-01-27T04:30:13.495Z,101546.02
2018-01-27T04:32:40.968Z,101550.05
2018-01-27T04:35:08.523Z,101554.98
2018-01-27T04:37:35.994Z,101558.30
2018-01-27T04:40:03.539Z,101565.97
2018-01-27T04:42:31.108Z,101560.45
2018-01-27T04:44:59.599Z,101556.02
2018-01-27T04:47:27.092Z,101558.17
2018-01-27T04:49:54.560Z,101558.78
2018-01-27T04:52:22.968Z,101566.18
2018-01-27T04:54:50.438Z,101565.09
2018-01-27T04:57:18.142Z,101565.91
2018-01-27T04:59:46.533Z,101560.33
2018-01-27T05:02:14.055Z,101567.17
2018-01-27T05:04:46.471Z,101572.72
2018-01-27T05:07:13.955Z,101577.28
2018-01-27T05:09:41.446Z,101583.16
2018-01-27T05:12:08.900Z,101587.13
2018-01-27T05:14:36.374Z,101582.41
2018-01-27T05:17:03.838Z,101580.59
2018-01-27T05:19:31.353Z,101580.59
2018-01-27T05:21:58.850Z,101582.81
2018-01-27T05:24:26.363Z,101587.02
2018-01-27T05:26:53.847Z,101589.02
2018-01-27T05:29:21.337Z,101595.70
2018-01-27T05:31:49.863Z,101600.88
2018-01-27T05:34:18.115Z,101603.56
2018-01-27T05:36:45.622Z,101597.89
2018-01-27T05:39:13.074Z,101608.52
2018-01-27T05:41:40.573Z,101614.54
2018-01-27T05:44:08.172Z,101617.71
2018-01-27T05:46:35.638Z,101618.78
2018-01-27T05:49:03.109Z,101619.10
2018-01-27T05:51:30.638Z,101626.72
2018-01-27T05:53:58.119Z,101628.16
2018-01-27T05:56:25.611Z,101629.30
2018-01-27T05:58:53.117Z,101633.89
2018-01-27T06:01:20.566Z,101639.52
2018-01-27T06:03:48.032Z,101636.47
2018-01-27T06:06:15.518Z,101636.70
2018-01-27T06:08:42.991Z,101638.81
2018-01-27T06:11:11.240Z,101635.14
2018-01-27T06:13:40.222Z,101640.05
2018-01-27T06:16:08.652Z,101640.36
2018-01-27T06:18:38.871Z,101649.32
2018-01-27T06:21:06.715Z,101649.14
2018-01-27T06:23:34.213Z,101653.58
2018-01-27T06:26:01.695Z,101653.51
2018-01-27T06:28:30.004Z,101663.78
2018-01-27T06:30:58.370Z,101660.23
2018-01-27T06:33:25.877Z,101664.02
2018-01-27T06:35:53.364Z,101671.83
2018-01-27T06:38:20.850Z,101679.64
2018-01-27T06:40:48.424Z,101680.28
2018-01-27T06:43:15.880Z,101683.66
2018-01-27T06:45:43.434Z,101690.27
2018-01-27T06:48:10.913Z,101688.56
2018-01-27T06:50:38.452Z,101695.55
2018-01-27T06:53:05.968Z,101704.65
2018-01-27T06:55:33.444Z,101704.39
2018-01-27T06:58:00.935Z,101703.94
2018-01-27T07:00:28.408Z,101706.80
2018-01-27T07:02:56.010Z,101706.34
2018-01-27T07:05:23.490Z,101715.98
2018-01-27T07:07:51.034Z,101718.17
2018-01-27T07:10:18.642Z,101730.44
2018-01-27T07:12:46.143Z,101724.47
2018-01-27T07:15:13.709Z,101728.70
2018-01-27T07:17:42.152Z,101730.62
2018-01-27T07:20:09.650Z,101736.36
2018-01-27T07:22:38.124Z,101736.86
2018-01-27T07:25:05.640Z,101739.34
2018-01-27T07:27:33.139Z,101746.56
2018-01-27T07:30:00.698Z,101747.06
2018-01-27T07:32:28.163Z,101748.56
2018-01-27T07:34:55.746Z,101754.45
2018-01-27T07:37:23.229Z,101755.43
2018-01-27T07:39:50.732Z,101762.34
2018-01-27T07:42:18.599Z,101767.17
2018-01-27T07:44:47.111Z,101774.31
2018-01-27T07:47:14.639Z,101775.86
2018-01-27T07:49:42.707Z,101776.66
2018-01-27T07:52:10.347Z,101781.83
2018-01-27T07:54:37.824Z,101782.01
2018-01-27T07:57:05.305Z,101786.95
2018-01-27T07:59:32.826Z,101783.70
2018-01-27T08:02:00.412Z,101780.38
2018-01-27T08:04:27.963Z,101780.56
2018-01-27T08:06:55.456Z,101776.22
2018-01-27T08:09:23.909Z,101789.70
2018-01-27T08:11:51.397Z,101782.72
2018-01-27T08:14:18.871Z,101788.50
2018-01-27T08:16:47.533Z,101789.63
2018-01-27T08:19:16.002Z,101789.28
2018-01-27T08:21:45.082Z,101798.20
2018-01-27T08:24:12.718Z,101802.65
2018-01-27T08:26:40.324Z,101805.75
2018-01-27T08:29:07.835Z,101815.27
2018-01-27T08:31:37.206Z,101813.10
2018-01-27T08:34:05.550Z,101815.78
2018-01-27T08:36:33.118Z,101810.88
2018-01-27T08:39:00.658Z,101816.27
2018-01-27T08:41:28.315Z,101817.48
2018-01-27T08:43:55.826Z,101816.16
2018-01-27T08:46:23.350Z,101818.20
2018-01-27T08:48:51.287Z,101821.22
2018-01-27T08:51:18.792Z,101825.45
2018-01-27T08:53:46.300Z,101832.09
2018-01-27T08:56:13.787Z,101829.48
2018-01-27T08:58:41.322Z,101829.68
2018-01-27T09:01:08.917Z,101834.63
2018-01-27T09:03:36.417Z,101834.59
2018-01-27T09:06:03.980Z,101832.70
2018-01-27T09:08:31.495Z,101830.37
2018-01-27T09:10:59.132Z,101837.11
2018-01-27T09:13:26.721Z,101833.41
2018-01-27T09:15:54.201Z,101835.31
2018-01-27T09:18:21.873Z,101838.25
2018-01-27T09:20:49.504Z,101834.53
2018-01-27T09:23:17.077Z,101831.96
2018-01-27T09:25:44.557Z,101831.66
2018-01-27T09:28:12.194Z,101842.39
2018-01-27T09:30:39.665Z,101845.44
2018-01-27T09:33:07.191Z,101852.09
2018-01-27T09:35:34.852Z,101854.44
2018-01-27T09:38:02.317Z,101854.20
2018-01-27T09:40:29.849Z,101853.80
2018-01-27T09:42:57.421Z,101861.88
2018-01-27T09:45:24.951Z,101857.59
2018-01-27T09:47:52.550Z,101863.05
2018-01-27T09:50:20.129Z,101869.20
2018-01-27T09:52:48.687Z,101867.16
2018-01-27T09:55:16.207Z,101868.03
2018-01-27T09:57:43.695Z,101869.84
2018-01-27T10:00:11.267Z,101873.59
2018-01-27T10:02:38.978Z,101872.38
2018-01-27T10:05:06.486Z,101870.53
2018-01-27T10:07:33.957Z,101868.49
2018-01-27T10:10:01.563Z,101868.87
2018-01-27T10:12:31.556Z,101876.46
2018-01-27T10:14:59.105Z,101873.05
2018-01-27T10:17:26.623Z,101876.16
2018-01-27T10:19:54.102Z,101871.92
2018-01-27T10:22:21.579Z,101876.23
2018-01-27T10:24:49.063Z,101876.23
2018-01-27T10:27:16.579Z,101876.48
2018-01-27T10:29:44.052Z,101872.33
2018-01-27T10:32:11.739Z,101872.40
2018-01-27T10:34:39.238Z,101873.67
2018-01-27T10:37:06.862Z,101875.93
2018-01-27T10:39:34.386Z,101875.31
2018-01-27T10:42:01.944Z,101879.44
2018-01-27T10:44:29.605Z,101882.20
2018-01-27T10:46:57.153Z,101885.30
2018-01-27T10:49:24.642Z,101895.89
2018-01-27T10:51:52.455Z,101889.50
2018-01-27T10:54:20.483Z,101888.48
2018-01-27T10:56:47.986Z,101893.77
2018-01-27T10:59:15.477Z,101891.02
2018-01-27T11:01:43.023Z,101890.59
2018-01-27T11:04:10.521Z,101893.99
2018-01-27T11:06:38.048Z,101899.27
2018-01-27T11:09:05.757Z,101906.95
2018-01-27T11:11:33.308Z,101905.05
2018-01-27T11:14:00.845Z,101905.27
2018-01-27T11:16:30.917Z,101909.38
2018-01-27T11:21:40.101Z,101913.46
2018-01-27T11:24:07.657Z,101919.23
2018-01-27T11:26:35.120Z,101921.05
2018-01-27T11:29:02.609Z,101919.17
2018-01-27T11:31:30.113Z,101922.46
2018-01-27T11:33:57.918Z,101920.03
2018-01-27T11:36:25.487Z,101925.91
2018-01-27T11:38:53.003Z,101929.50
2018-01-27T11:41:20.555Z,101931.02
2018-01-27T11:43:48.296Z,101928.14
2018-01-27T11:46:15.790Z,101931.36
2018-01-27T11:48:43.258Z,101925.34
2018-01-27T11:51:10.891Z,101928.06
2018-01-27T11:53:38.400Z,101921.14
2018-01-27T11:56:06.106Z,101913.41
2018-01-27T11:58:33.803Z,101918.75
2018-01-27T12:01:01.262Z,101923.64
2018-01-27T12:03:28.927Z,101916.27
2018-01-27T12:05:56.421Z,101912.73
2018-01-27T12:08:23.983Z,101910.55
2018-01-27T12:10:51.472Z,101908.44
2018-01-27T12:13:18.991Z,101914.10
2018-01-27T12:15:46.520Z,101905.31
2018-01-27T12:18:14.198Z,101894.84
2018-01-27T12:20:41.713Z,101891.88
2018-01-27T12:23:09.397Z,101882.88
2018-01-27T12:25:37.719Z,101877.47
2018-01-27T12:28:05.273Z,101880.27
2018-01-27T12:30:33.218Z,101886.38
2018-01-27T12:33:00.718Z,101877.66
2018-01-27T12:35:28.192Z,101875.82
2018-01-27T12:37:55.689Z,101878.52
2018-01-27T12:40:23.179Z,101870.57
2018-01-27T12:42:50.706Z,101868.72
2018-01-27T12:45:18.225Z,101863.32
2018-01-27T12:47:45.984Z,101860.02
2018-01-27T12:50:13.569Z,101853.78
2018-01-27T12:52:41.081Z,101847.02
2018-01-27T12:55:08.622Z,101838.53
2018-01-27T12:57:36.172Z,101842.56
2018-01-27T13:00:03.852Z,101840.19
2018-01-27T13:02:31.356Z,101844.45
2018-01-27T13:04:58.924Z,101844.52
2018-01-27T13:07:26.408Z,101843.06
2018-01-27T13:09:54.041Z,101840.21
2018-01-27T13:12:21.589Z,101837.91
2018-01-27T13:14:49.308Z,101844.66
2018-01-27T13:17:16.776Z,101843.34
2018-01-27T13:19:44.225Z,101843.92
2018-01-27T13:22:12.016Z,101852.01
2018-01-27T13:24:40.317Z,101844.47
2018-01-27T13:27:07.790Z,101846.83
2018-01-27T13:29:35.313Z,101846.89
2018-01-27T13:32:02.880Z,101846.52
2018-01-27T13:34:30.399Z,101851.48
2018-01-27T13:36:57.968Z,101847.92
2018-01-27T13:39:25.563Z,101845.32
2018-01-27T13:41:53.322Z,101842.58
2018-01-27T13:44:20.945Z,101842.89
2018-01-27T13:46:48.458Z,101849.41
2018-01-27T13:49:16.078Z,101844.17
2018-01-27T13:51:43.732Z,101848.83
2018-01-27T13:54:11.183Z,101840.77
2018-01-27T13:56:38.695Z,101830.88
2018-01-27T13:59:06.450Z,101838.34
2018-01-27T14:01:34.273Z,101834.84
2018-01-27T14:04:01.873Z,101832.55
2018-01-27T14:06:30.795Z,101844.17
2018-01-27T14:08:58.386Z,101838.93
2018-01-27T14:11:26.666Z,101839.40
2018-01-27T14:13:54.202Z,101847.56
2018-01-27T14:16:21.751Z,101855.19
2018-01-27T14:18:49.232Z,101865.67
2018-01-27T14:21:16.941Z,101863.76
2018-01-27T14:23:44.573Z,101866.83
2018-01-27T14:26:12.119Z,101862.27
2018-01-27T14:28:39.723Z,101847.33
2018-01-27T14:31:07.274Z,101848.39
2018-01-27T14:33:44.402Z,101856.84
2018-01-27T14:36:11.931Z,101852.48
2018-01-27T14:38:39.471Z,101852.57
2018-01-27T14:41:06.958Z,101853.66
2018-01-27T14:43:34.630Z,101858.84
2018-01-27T14:46:02.327Z,101862.48
2018-01-27T14:48:29.867Z,101864.42
2018-01-27T14:50:57.404Z,101874.77
2018-01-27T14:53:24.895Z,101876.61
2018-01-27T14:55:52.421Z,101874.81
2018-01-27T14:58:19.878Z,101870.18
2018-01-27T15:00:47.420Z,101878.95
2018-01-27T15:03:14.917Z,101871.92
2018-01-27T15:05:42.473Z,101870.34
2018-01-27T15:08:09.954Z,101875.88
2018-01-27T15:10:37.514Z,101874.78
2018-01-27T15:13:05.023Z,101869.98
2018-01-27T15:15:32.571Z,101875.81
2018-01-27T15:18:00.091Z,101877.78
2018-01-27T15:20:27.688Z,101870.40
2018-01-27T15:22:55.374Z,101860.27
2018-01-27T15:25:22.920Z,101861.18
2018-01-27T15:27:50.462Z,101873.03
2018-01-27T15:30:18.090Z,101865.81
2018-01-27T15:32:45.630Z,101865.06
2018-01-27T15:35:13.143Z,101862.36
2018-01-27T15:37:40.648Z,101867.52
2018-01-27T15:40:08.714Z,101867.22
2018-01-27T15:42:36.220Z,101868.03
2018-01-27T15:45:03.711Z,101865.13
2018-01-27T15:47:31.305Z,101856.59
2018-01-27T15:49:58.798Z,101859.05
2018-01-27T15:52:26.300Z,101873.24
2018-01-27T15:54:55.321Z,101882.30
2018-01-27T15:57:23.048Z,101888.65
2018-01-27T15:59:50.547Z,101884.98
2018-01-27T16:02:18.060Z,101887.98
2018-01-27T16:04:45.564Z,101887.30
2018-01-27T16:07:13.133Z,101888.97
2018-01-27T16:09:41.377Z,101892.64
2018-01-27T16:12:08.993Z,101890.11
2018-01-27T16:14:46.114Z,101893.33
2018-01-27T16:17:13.736Z,101888.45
2018-01-27T16:19:41.339Z,101881.84
2018-01-27T16:22:08.862Z,101884.38
2018-01-27T16:24:36.400Z,101884.11
2018-01-27T16:27:03.976Z,101882.56
2018-01-27T16:29:31.427Z,101876.97
2018-01-27T16:31:59.400Z,101876.56
2018-01-27T16:34:28.423Z,101878.52
2018-01-27T16:36:56.057Z,101874.37
2018-01-27T16:39:23.634Z,101865.41
2018-01-27T16:41:51.277Z,101872.41
2018-01-27T16:44:18.894Z,101876.45
2018-01-27T16:46:46.454Z,101876.11
2018-01-27T16:49:14.292Z,101876.30
2018-01-27T16:51:41.875Z,101880.11
2018-01-27T16:54:09.406Z,101891.67
2018-01-27T16:56:36.944Z,101888.55
2018-01-27T16:59:04.446Z,101895.16
2018-01-27T17:01:32.100Z,101899.54
2018-01-27T17:04:09.374Z,101889.88
2018-01-27T17:06:36.849Z,101892.73
2018-01-27T17:09:04.373Z,101897.43
2018-01-27T17:11:32.647Z,101891.23
2018-01-27T17:14:00.145Z,101883.94
2018-01-27T17:16:27.754Z,101881.41
2018-01-27T17:18:55.355Z,101880.50
2018-01-27T17:21:23.794Z,101887.68
2018-01-27T17:23:51.355Z,101878.16
2018-01-27T17:26:19.089Z,101869.70
2018-01-27T17:28:46.659Z,101863.31
2018-01-27T17:31:14.530Z,101861.27
2018-01-27T17:33:42.247Z,101850.89
2018-01-27T17:36:10.857Z,101850.77
2018-01-27T17:38:39.688Z,101846.42
2018-01-27T17:41:07.247Z,101841.86
2018-01-27T17:43:34.976Z,101840.16
2018-01-27T17:46:02.524Z,101837.17
2018-01-27T17:48:30.969Z,101834.34
2018-01-27T17:50:58.552Z,101830.08
2018-01-27T17:53:26.102Z,101827.89
2018-01-27T17:55:53.678Z,101829.29
2018-01-27T17:58:21.242Z,101832.69
2018-01-27T18:00:48.863Z,101831.29
2018-01-27T18:03:16.534Z,101827.36
2018-01-27T18:05:44.222Z,101832.05
2018-01-27T18:08:11.702Z,101831.59
2018-01-27T18:10:39.250Z,101830.58
2018-01-27T18:13:06.723Z,101831.48
2018-01-27T18:15:35.848Z,101836.23
2018-01-27T18:18:04.182Z,101834.01
2018-01-27T18:20:32.655Z,101826.58
2018-01-27T18:23:00.262Z,101828.00
2018-01-27T18:25:27.979Z,101833.85
2018-01-27T18:27:55.497Z,101834.65
2018-01-27T18:30:23.588Z,101831.48
2018-01-27T18:32:51.252Z,101828.56
2018-01-27T18:35:19.597Z,101830.03
2018-01-27T18:37:47.109Z,101832.91
2018-01-27T18:40:15.482Z,101837.31
2018-01-27T18:42:43.834Z,101818.52
2018-01-27T18:45:11.642Z,101807.27
2018-01-27T18:47:39.170Z,101805.00
2018-01-27T18:50:06.696Z,101803.45
2018-01-27T18:52:34.251Z,101796.53
2018-01-27T18:55:01.864Z,101790.56
2018-01-27T18:57:29.367Z,101795.66
2018-01-27T18:59:56.853Z,101794.83
2018-01-27T19:02:24.442Z,101790.03
2018-01-27T19:04:52.928Z,101791.62
2018-01-27T19:07:20.451Z,101789.13
2018-01-27T19:09:47.954Z,101782.14
2018-01-27T19:12:15.516Z,101774.86
2018-01-27T19:14:44.102Z,101786.66
2018-01-27T19:17:11.621Z,101785.56
2018-01-27T19:19:39.334Z,101781.55
2018-01-27T19:22:07.078Z,101770.49
2018-01-27T19:24:34.690Z,101774.50
2018-01-27T19:27:04.720Z,101779.78
2018-01-27T19:29:32.477Z,101772.32
2018-01-27T19:32:00.043Z,101782.65
2018-01-27T19:34:28.235Z,101790.41
2018-01-27T19:36:55.748Z,101799.50
2018-01-27T19:39:23.353Z,101801.21
2018-01-27T19:41:51.000Z,101803.30
2018-01-27T19:44:18.553Z,101791.56
2018-01-27T19:46:46.098Z,101789.72
2018-01-27T19:49:14.420Z,101782.55
2018-01-27T19:51:42.033Z,101785.08
2018-01-27T19:54:12.845Z,101770.42
2018-01-27T19:56:40.527Z,101766.59
2018-01-27T19:59:08.193Z,101766.52
2018-01-27T20:01:35.704Z,101761.87
2018-01-27T20:04:04.278Z,101758.05
2018-01-27T20:06:31.952Z,101751.45
2018-01-27T20:08:59.606Z,101746.56
2018-01-27T20:11:27.930Z,101750.69
2018-01-27T20:13:55.474Z,101744.33
2018-01-27T20:16:22.980Z,101744.42
2018-01-27T20:18:50.611Z,101739.16
2018-01-27T20:21:18.143Z,101741.14
2018-01-27T20:23:46.449Z,101755.16
2018-01-27T20:26:14.127Z,101764.30
2018-01-27T20:28:42.569Z,101764.16
2018-01-27T20:31:10.204Z,101756.45
2018-01-27T20:33:47.466Z,101735.45
2018-01-27T20:36:15.416Z,101724.38
2018-01-27T20:38:42.996Z,101725.85
2018-01-27T20:41:10.571Z,101715.55
2018-01-27T20:43:38.219Z,101707.73
2018-01-27T20:46:05.895Z,101703.86
2018-01-27T20:48:33.493Z,101699.75
2018-01-27T20:51:01.200Z,101701.03
2018-01-27T20:53:28.792Z,101693.88
2018-01-27T20:55:56.403Z,101705.90
2018-01-27T20:58:24.175Z,101707.66
2018-01-27T21:00:52.046Z,101718.70
2018-01-27T21:03:19.590Z,101721.45
2018-01-27T21:05:47.400Z,101715.50
2018-01-27T21:08:15.250Z,101709.73
2018-01-27T21:10:43.629Z,101703.66
2018-01-27T21:13:11.173Z,101705.44
2018-01-27T21:15:38.852Z,101697.74
2018-01-27T21:18:06.630Z,101685.64
2018-01-27T21:20:34.415Z,101675.34
2018-01-27T21:23:02.084Z,101665.69
2018-01-27T21:25:30.392Z,101670.37
2018-01-27T21:27:57.878Z,101666.05
2018-01-27T21:30:26.628Z,101665.81
2018-01-27T21:32:54.420Z,101662.27
2018-01-27T21:35:22.411Z,101664.12
2018-01-27T21:37:50.069Z,101665.67
2018-01-27T21:40:17.702Z,101678.60
2018-01-27T21:42:45.358Z,101683.58
2018-01-27T21:45:13.874Z,101684.70
2018-01-27T21:47:42.411Z,101678.63
2018-01-27T21:50:10.601Z,101681.57
2018-01-27T21:52:38.152Z,101683.00
2018-01-27T21:55:05.823Z,101689.60
2018-01-27T21:57:33.368Z,101680.37
2018-01-27T22:00:01.751Z,101681.66
2018-01-27T22:02:29.349Z,101688.81
2018-01-27T22:04:56.830Z,101681.14
2018-01-27T22:07:24.825Z,101680.99
2018-01-27T22:09:52.328Z,101675.79
2018-01-27T22:12:20.816Z,101670.63
2018-01-27T22:14:48.764Z,101664.97
2018-01-27T22:17:16.322Z,101658.37
2018-01-27T22:19:44.071Z,101661.12
2018-01-27T22:22:11.726Z,101651.54
2018-01-27T22:24:53.526Z,101645.24
2018-01-27T22:27:21.075Z,101636.27
2018-01-27T22:29:48.632Z,101629.59
2018-01-27T22:32:17.060Z,101626.27
2018-01-27T22:34:44.679Z,101619.48
2018-01-27T22:37:12.454Z,101625.30
2018-01-27T22:39:41.003Z,101620.73
2018-01-27T22:42:08.727Z,101622.02
2018-01-27T22:44:46.137Z,101622.69
2018-01-27T22:47:14.587Z,101625.07
2018-01-27T22:49:42.123Z,101631.41
2018-01-27T22:52:09.794Z,101642.87
2018-01-27T22:54:46.977Z,101649.66
2018-01-27T22:57:14.552Z,101644.48
2018-01-27T22:59:42.350Z,101638.98
2018-01-27T23:02:09.963Z,101636.23
2018-01-27T23:04:38.536Z,101635.51
2018-01-27T23:07:06.302Z,101623.59
2018-01-27T23:09:33.868Z,101611.72
2018-01-27T23:12:01.696Z,101600.22
2018-01-27T23:14:29.260Z,101600.18
2018-01-27T23:16:56.887Z,101600.92
2018-01-27T23:19:24.431Z,101611.48
2018-01-27T23:21:52.042Z,101610.78
2018-01-27T23:24:19.550Z,101597.47
2018-01-27T23:26:47.038Z,101596.44
2018-01-27T23:29:14.726Z,101571.41
2018-01-27T23:31:42.823Z,101559.11
2018-01-27T23:34:29.621Z,101550.70
2018-01-27T23:36:57.095Z,101554.73
2018-01-27T23:39:26.103Z,101558.39
2018-01-27T23:41:53.698Z,101569.36
2018-01-27T23:44:21.683Z,101575.44
2018-01-27T23:46:49.985Z,101569.86
2018-01-27T23:49:17.573Z,101567.70
2018-01-27T23:51:45.201Z,101566.13
2018-01-27T23:54:12.701Z,101562.80
2018-01-27T23:56:40.401Z,101558.66
2018-01-27T23:59:07.902Z,101559.80
